Time;durP1;ratioP1;P1;durP2;ratioP2;P2;SDS_P1;SDS_P2;PMS_P1;PMS_P2;Temp;Humidity;BMP_temperature;BMP_pressure;BME280_temperature;BME280_humidity;BME280_pressure;Samples;Min_cycle;Max_cycle;Signal;HPM_P1;HPM_P2
2022/04/24 00:00:08;;;;;;;0.50;0.50;;;;;;;10.24;60.17;99478.58;103101;1281;137749;-67
2022/04/24 00:02:56;;;;;;;0.50;0.50;;;;;;;10.19;59.85;99475.91;103356;1279;109108;-67
2022/04/24 00:05:24;;;;;;;0.50;0.50;;;;;;;10.16;60.07;99468.38;103276;1279;99621;-66
2022/04/24 00:07:52;;;;;;;0.50;0.50;;;;;;;10.15;60.21;99464.38;103308;1279;138030;-65
2022/04/24 00:10:22;;;;;;;0.50;0.50;;;;;;;10.04;60.40;99460.02;103403;1279;94356;-65
2022/04/24 00:12:50;;;;;;;0.50;0.50;;;;;;;9.99;60.32;99463.77;103334;1279;137742;-68
2022/04/24 00:15:18;;;;;;;0.50;0.50;;;;;;;9.94;60.45;99462.89;103424;1279;108352;-67
2022/04/24 00:17:46;;;;;;;0.50;0.40;;;;;;;9.89;60.58;99466.43;103405;1279;138491;-65
2022/04/24 00:20:14;;;;;;;0.50;0.40;;;;;;;9.87;60.63;99465.64;103559;1279;108837;-66
2022/04/24 00:22:42;;;;;;;0.50;0.40;;;;;;;9.82;60.72;99463.00;103407;1280;94433;-66
2022/04/24 00:25:10;;;;;;;0.50;0.50;;;;;;;9.73;60.98;99460.50;103308;1279;137982;-66
2022/04/24 00:27:38;;;;;;;0.50;0.40;;;;;;;9.65;61.16;99460.78;103443;1279;108257;-67
2022/04/24 00:30:07;;;;;;;0.50;0.50;;;;;;;9.55;61.28;99464.38;103182;1281;138116;-66
2022/04/24 00:32:34;;;;;;;0.50;0.50;;;;;;;9.43;61.48;99464.80;103242;1281;108825;-67
2022/04/24 00:35:03;;;;;;;0.50;0.50;;;;;;;9.33;62.17;99463.75;103406;1279;94626;-67
2022/04/24 00:37:31;;;;;;;0.60;0.60;;;;;;;9.33;62.45;99467.80;103455;1279;138679;-67
2022/04/24 00:39:58;;;;;;;0.50;0.50;;;;;;;9.37;62.45;99466.08;103189;1282;108918;-67
2022/04/24 00:42:26;;;;;;;0.50;0.50;;;;;;;9.38;62.57;99468.34;103095;1282;138698;-67
2022/04/24 00:44:54;;;;;;;0.50;0.50;;;;;;;9.34;62.70;99474.86;103382;1279;108765;-66
2022/04/24 00:47:31;;;;;;;0.50;0.50;;;;;;;9.32;62.86;99476.16;103280;1281;94337;-66
2022/04/24 00:49:59;;;;;;;0.50;0.40;;;;;;;9.39;62.91;99470.61;103321;1279;138269;-66
2022/04/24 00:52:27;;;;;;;0.50;0.40;;;;;;;9.45;62.59;99469.15;103388;1280;110225;-66
2022/04/24 00:54:55;;;;;;;0.50;0.50;;;;;;;9.46;62.61;99470.02;103325;1279;137644;-66
2022/04/24 00:57:23;;;;;;;0.50;0.50;;;;;;;9.42;62.81;99472.82;103423;1279;108908;-66
2022/04/24 00:59:51;;;;;;;0.50;0.50;;;;;;;9.36;62.95;99476.56;103287;1279;139009;-67
2022/04/24 01:02:18;;;;;;;0.50;0.50;;;;;;;9.41;62.98;99479.02;103459;1279;94678;-66
2022/04/24 01:04:47;;;;;;;0.50;0.50;;;;;;;9.38;62.99;99478.98;103608;1279;108502;-65
2022/04/24 01:07:15;;;;;;;0.50;0.50;;;;;;;9.33;63.30;99480.94;103296;1279;138727;-66
2022/04/24 01:09:43;;;;;;;0.50;0.50;;;;;;;9.27;63.04;99477.22;103222;1281;108785;-67
2022/04/24 01:12:11;;;;;;;0.50;0.50;;;;;;;9.30;63.31;99474.48;103245;1279;138491;-65
2022/04/24 01:14:39;;;;;;;0.50;0.50;;;;;;;9.38;63.13;99475.05;103648;1280;94517;-67
2022/04/24 01:17:07;;;;;;;0.50;0.50;;;;;;;9.46;62.88;99475.31;103376;1279;107355;-67
2022/04/24 01:19:35;;;;;;;0.50;0.50;;;;;;;9.50;62.44;99474.98;103113;1280;138412;-67
2022/04/24 01:22:04;;;;;;;0.50;0.50;;;;;;;9.50;62.60;99474.47;103332;1279;108917;-66
2022/04/24 01:24:32;;;;;;;0.50;0.50;;;;;;;9.56;62.44;99469.46;103368;1279;138417;-66
2022/04/24 01:27:00;;;;;;;0.50;0.40;;;;;;;9.62;62.32;99464.45;103697;1279;94350;-66
2022/04/24 01:29:28;;;;;;;0.50;0.50;;;;;;;9.68;61.83;99459.29;103209;1281;107700;-67
2022/04/24 01:31:56;;;;;;;0.50;0.50;;;;;;;9.63;61.61;99459.63;103276;1281;137860;-67
2022/04/24 01:34:24;;;;;;;0.50;0.50;;;;;;;9.67;61.46;99461.08;103236;1281;108996;-66
2022/04/24 01:36:52;;;;;;;0.50;0.50;;;;;;;9.65;61.10;99457.27;103230;1279;137975;-66
2022/04/24 01:39:20;;;;;;;0.50;0.50;;;;;;;9.56;61.10;99456.52;103482;1279;95426;-66
2022/04/24 01:41:48;;;;;;;0.50;0.50;;;;;;;9.47;61.14;99457.02;103262;1279;137691;-68
2022/04/24 01:44:16;;;;;;;0.50;0.50;;;;;;;9.47;61.21;99457.41;103424;1279;99480;-67
2022/04/24 01:46:44;;;;;;;0.50;0.50;;;;;;;9.42;60.96;99461.82;103425;1279;108808;-65
2022/04/24 01:49:11;;;;;;;0.50;0.50;;;;;;;9.36;61.01;99459.90;103351;1279;138428;-66
2022/04/24 01:51:40;;;;;;;0.50;0.50;;;;;;;9.36;61.26;99456.72;103366;1280;94436;-66
2022/04/24 01:54:07;;;;;;;0.50;0.50;;;;;;;9.32;61.07;99463.23;103357;1279;137975;-67
2022/04/24 01:56:35;;;;;;;0.60;0.60;;;;;;;9.28;61.48;99462.67;103406;1279;98308;-65
2022/04/24 01:59:03;;;;;;;0.50;0.50;;;;;;;9.32;61.15;99464.84;103434;1279;109333;-66
2022/04/24 02:01:31;;;;;;;0.50;0.50;;;;;;;9.34;61.27;99466.16;103370;1279;137833;-66
2022/04/24 02:03:59;;;;;;;0.50;0.50;;;;;;;9.36;61.09;99465.05;103429;1279;94524;-66
2022/04/24 02:06:27;;;;;;;0.50;0.50;;;;;;;9.31;61.22;99467.18;103321;1279;138419;-66
2022/04/24 02:08:55;;;;;;;0.50;0.50;;;;;;;9.35;61.36;99464.90;103433;1279;99423;-66
2022/04/24 02:11:23;;;;;;;0.50;0.50;;;;;;;9.35;61.05;99467.73;103472;1279;108834;-65
2022/04/24 02:13:51;;;;;;;0.50;0.50;;;;;;;9.35;61.06;99462.77;103409;1279;137608;-67
2022/04/24 02:16:19;;;;;;;0.50;0.50;;;;;;;9.36;60.91;99466.12;103361;1279;94744;-68
2022/04/24 02:18:47;;;;;;;0.50;0.50;;;;;;;9.35;61.03;99463.33;103064;1279;140469;-66
2022/04/24 02:21:15;;;;;;;0.40;0.40;;;;;;;9.35;61.06;99465.07;103465;1280;99376;-67
2022/04/24 02:23:43;;;;;;;0.50;0.50;;;;;;;9.43;60.82;99462.50;103342;1279;138149;-67
2022/04/24 02:26:11;;;;;;;0.50;0.50;;;;;;;9.50;60.71;99463.46;103451;1279;94616;-67
2022/04/24 02:28:39;;;;;;;0.50;0.50;;;;;;;9.44;60.54;99468.13;103389;1279;94392;-66
2022/04/24 02:31:07;;;;;;;0.60;0.60;;;;;;;9.46;60.93;99465.92;103567;1279;138152;-66
2022/04/24 02:33:36;;;;;;;0.50;0.50;;;;;;;9.38;60.80;99472.59;103421;1279;99411;-66
2022/04/24 02:36:04;;;;;;;0.50;0.40;;;;;;;9.33;60.94;99475.79;103515;1279;137605;-66
2022/04/24 02:38:32;;;;;;;0.50;0.50;;;;;;;9.25;60.97;99474.67;103738;1279;94872;-66
2022/04/24 02:41:00;;;;;;;0.60;0.60;;;;;;;9.26;61.39;99476.23;103450;1279;94360;-66
2022/04/24 02:43:28;;;;;;;0.50;0.50;;;;;;;9.26;61.10;99475.34;103298;1279;138445;-67
2022/04/24 02:45:56;;;;;;;0.50;0.50;;;;;;;9.30;61.23;99474.81;103394;1279;99707;-67
2022/04/24 02:48:27;;;;;;;0.50;0.50;;;;;;;9.38;60.99;99473.85;103318;1280;138487;-66
2022/04/24 02:50:57;;;;;;;0.50;0.50;;;;;;;9.34;60.59;99471.48;103402;1279;94866;-66
2022/04/24 02:53:25;;;;;;;0.60;0.60;;;;;;;9.35;60.70;99473.95;103426;1279;94431;-67
2022/04/24 02:55:53;;;;;;;0.50;0.50;;;;;;;9.28;60.64;99471.53;103305;1279;138518;-67
2022/04/24 02:58:22;;;;;;;0.50;0.40;;;;;;;9.25;60.80;99472.70;103367;1279;99414;-67
2022/04/24 03:00:50;;;;;;;0.50;0.50;;;;;;;9.25;60.46;99472.38;103183;1282;137559;-67
2022/04/24 03:03:18;;;;;;;0.50;0.50;;;;;;;9.15;60.62;99472.16;103463;1279;94857;-66
2022/04/24 03:05:48;;;;;;;0.60;0.60;;;;;;;9.16;60.50;99468.08;103454;1279;138223;-66
2022/04/24 03:08:18;;;;;;;0.50;0.50;;;;;;;9.16;60.38;99463.98;103528;1279;107891;-67
2022/04/24 03:10:46;;;;;;;0.50;0.50;;;;;;;9.14;60.35;99463.71;103773;1279;99465;-66
2022/04/24 03:13:14;;;;;;;0.60;0.60;;;;;;;9.09;60.30;99458.02;103320;1279;138499;-67
2022/04/24 03:15:42;;;;;;;0.60;0.60;;;;;;;9.10;60.36;99451.46;103361;1279;94561;-66
2022/04/24 03:18:10;;;;;;;0.50;0.50;;;;;;;9.08;60.36;99447.81;103219;1279;138450;-69
2022/04/24 03:20:37;;;;;;;0.60;0.60;;;;;;;9.10;60.26;99446.14;103348;1279;108685;-66
2022/04/24 03:23:05;;;;;;;0.50;0.50;;;;;;;9.07;59.99;99449.44;103378;1281;99490;-66
2022/04/24 03:25:33;;;;;;;0.60;0.60;;;;;;;8.93;60.09;99454.70;103173;1280;137454;-66
2022/04/24 03:28:01;;;;;;;0.60;0.60;;;;;;;8.80;60.55;99457.80;103389;1280;94692;-66
2022/04/24 03:30:29;;;;;;;0.50;0.50;;;;;;;8.76;60.57;99464.48;103186;1279;138739;-66
2022/04/24 03:32:57;;;;;;;0.50;0.50;;;;;;;8.70;60.63;99463.60;103413;1279;108312;-66
2022/04/24 03:35:26;;;;;;;0.60;0.60;;;;;;;8.70;60.93;99466.83;103330;1279;98845;-67
2022/04/24 03:37:54;;;;;;;0.60;0.60;;;;;;;8.67;60.71;99470.62;103253;1279;137700;-67
2022/04/24 03:40:23;;;;;;;0.70;0.70;;;;;;;8.66;60.84;99472.27;103402;1279;94299;-67
2022/04/24 03:42:50;;;;;;;0.50;0.50;;;;;;;8.63;60.68;99474.99;103295;1279;138409;-66
2022/04/24 03:45:18;;;;;;;0.50;0.50;;;;;;;8.58;60.92;99474.45;103390;1279;107309;-66
2022/04/24 03:47:51;;;;;;;0.60;0.60;;;;;;;8.55;61.10;99474.02;103344;1279;138241;-66
2022/04/24 03:50:20;;;;;;;0.70;0.70;;;;;;;8.59;60.79;99470.21;103438;1279;108842;-66
2022/04/24 03:52:48;;;;;;;0.60;0.60;;;;;;;8.57;60.75;99469.90;103698;1279;94805;-65
2022/04/24 03:55:16;;;;;;;0.60;0.60;;;;;;;8.55;60.83;99466.25;103305;1279;138714;-66
2022/04/24 03:57:44;;;;;;;0.60;0.60;;;;;;;8.53;60.76;99466.84;103409;1279;108260;-66
2022/04/24 04:00:12;;;;;;;0.60;0.60;;;;;;;8.52;60.91;99465.65;103230;1279;137853;-66
2022/04/24 04:02:42;;;;;;;0.60;0.60;;;;;;;8.59;60.98;99465.42;103377;1279;108314;-67
2022/04/24 04:05:10;;;;;;;0.60;0.60;;;;;;;8.59;60.85;99466.31;103543;1279;95017;-67
2022/04/24 04:07:39;;;;;;;0.60;0.60;;;;;;;8.63;61.10;99469.02;103332;1279;137806;-66
2022/04/24 04:10:07;;;;;;;0.60;0.60;;;;;;;8.62;60.72;99473.08;103482;1279;108460;-66
2022/04/24 04:12:35;;;;;;;0.60;0.60;;;;;;;8.53;61.01;99472.52;103191;1279;152192;-67
2022/04/24 04:15:05;;;;;;;0.60;0.60;;;;;;;8.47;60.91;99470.59;103527;1279;108857;-66
2022/04/24 04:17:33;;;;;;;0.60;0.60;;;;;;;8.44;61.00;99470.63;103566;1279;94647;-66
2022/04/24 04:20:01;;;;;;;0.70;0.70;;;;;;;8.47;61.10;99468.29;103216;1279;138086;-67
2022/04/24 04:22:29;;;;;;;0.60;0.60;;;;;;;8.50;61.09;99473.30;103345;1279;108328;-66
2022/04/24 04:24:57;;;;;;;0.60;0.60;;;;;;;8.44;60.81;99469.42;103251;1279;137672;-66
2022/04/24 04:27:26;;;;;;;0.60;0.60;;;;;;;8.42;61.20;99468.60;103337;1279;108838;-66
2022/04/24 04:29:54;;;;;;;0.60;0.60;;;;;;;8.41;61.17;99469.33;103289;1279;138723;-66
2022/04/24 04:32:22;;;;;;;0.60;0.60;;;;;;;8.43;61.05;99470.50;103353;1281;94691;-68
2022/04/24 04:34:50;;;;;;;0.60;0.60;;;;;;;8.49;61.13;99468.76;103393;1279;108932;-67
2022/04/24 04:37:18;;;;;;;0.60;0.60;;;;;;;8.33;61.22;99468.19;103251;1279;138471;-66
2022/04/24 04:39:46;;;;;;;0.60;0.60;;;;;;;8.32;61.44;99468.20;103356;1279;108784;-66
2022/04/24 04:42:13;;;;;;;0.70;0.70;;;;;;;8.39;61.79;99469.20;103195;1279;139167;-66
2022/04/24 04:44:43;;;;;;;0.60;0.60;;;;;;;8.49;61.67;99473.69;103465;1279;95000;-66
2022/04/24 04:47:10;;;;;;;0.60;0.60;;;;;;;8.56;61.02;99473.65;103419;1279;108640;-66
2022/04/24 04:49:39;;;;;;;0.60;0.60;;;;;;;8.41;61.22;99473.05;103348;1280;137712;-66
2022/04/24 04:52:07;;;;;;;0.60;0.60;;;;;;;8.42;61.61;99470.01;103268;1280;108067;-66
2022/04/24 04:54:35;;;;;;;0.70;0.70;;;;;;;8.45;61.37;99472.22;103251;1279;138693;-66
2022/04/24 04:57:04;;;;;;;0.60;0.60;;;;;;;8.53;61.52;99466.15;103504;1279;94310;-66
2022/04/24 04:59:32;;;;;;;0.60;0.60;;;;;;;8.57;61.38;99468.15;103414;1279;107313;-66
2022/04/24 05:02:00;;;;;;;0.50;0.50;;;;;;;8.57;61.45;99469.56;103387;1279;137421;-67
2022/04/24 05:04:33;;;;;;;0.60;0.60;;;;;;;8.54;61.61;99468.75;103150;1282;108848;-67
2022/04/24 05:07:01;;;;;;;0.60;0.60;;;;;;;8.58;61.79;99467.39;103267;1279;138111;-66
2022/04/24 05:09:29;;;;;;;0.60;0.60;;;;;;;8.67;61.48;99467.27;103404;1279;94326;-67
2022/04/24 05:11:56;;;;;;;0.60;0.60;;;;;;;8.80;61.43;99459.58;103334;1279;137601;-66
2022/04/24 05:14:24;;;;;;;0.60;0.60;;;;;;;8.82;61.44;99462.51;103291;1279;99959;-66
2022/04/24 05:16:52;;;;;;;0.60;0.60;;;;;;;8.76;61.43;99463.79;103353;1279;108832;-66
2022/04/24 05:19:20;;;;;;;0.60;0.60;;;;;;;8.80;61.77;99463.98;103208;1279;138422;-66
2022/04/24 05:21:48;;;;;;;0.50;0.50;;;;;;;8.93;61.67;99464.08;103318;1279;94212;-68
2022/04/24 05:24:16;;;;;;;0.50;0.50;;;;;;;8.97;61.32;99465.70;103277;1279;137703;-66
2022/04/24 05:26:44;;;;;;;0.50;0.50;;;;;;;8.96;61.55;99464.87;103412;1279;98482;-65
2022/04/24 05:29:12;;;;;;;0.50;0.50;;;;;;;9.09;61.52;99466.02;103432;1279;109064;-66
2022/04/24 05:31:40;;;;;;;0.50;0.50;;;;;;;9.25;61.12;99469.88;103280;1279;137944;-66
2022/04/24 05:34:09;;;;;;;0.50;0.50;;;;;;;9.23;61.20;99475.80;103483;1279;94296;-66
2022/04/24 05:36:37;;;;;;;0.60;0.60;;;;;;;9.27;61.09;99486.82;103481;1279;137846;-66
2022/04/24 05:39:05;;;;;;;0.60;0.60;;;;;;;9.25;61.20;99496.46;103497;1279;99732;-66
2022/04/24 05:41:33;;;;;;;0.50;0.50;;;;;;;9.28;61.48;99496.69;103297;1279;108906;-67
2022/04/24 05:44:01;;;;;;;0.50;0.50;;;;;;;9.32;61.62;99497.77;103460;1279;137553;-66
2022/04/24 05:46:30;;;;;;;0.50;0.50;;;;;;;9.33;61.45;99492.96;103404;1279;94722;-67
2022/04/24 05:49:00;;;;;;;0.50;0.50;;;;;;;9.33;61.74;99493.87;103443;1279;138015;-67
2022/04/24 05:51:29;;;;;;;0.50;0.50;;;;;;;9.40;61.94;99492.89;103550;1279;98932;-65
2022/04/24 05:53:57;;;;;;;0.50;0.50;;;;;;;9.46;62.43;99494.08;103398;1279;138340;-66
2022/04/24 05:56:24;;;;;;;0.50;0.50;;;;;;;9.70;61.96;99491.82;103476;1279;94339;-66
2022/04/24 05:58:52;;;;;;;0.60;0.60;;;;;;;9.80;61.27;99495.30;103416;1279;94795;-66
2022/04/24 06:01:20;;;;;;;0.40;0.40;;;;;;;9.83;61.53;99495.73;103337;1280;137376;-66
2022/04/24 06:03:49;;;;;;;0.50;0.50;;;;;;;9.86;61.29;99495.80;103455;1279;99319;-66
2022/04/24 06:06:17;;;;;;;0.50;0.50;;;;;;;9.90;61.51;99494.42;103673;1279;138228;-66
2022/04/24 06:08:45;;;;;;;0.40;0.40;;;;;;;9.97;61.26;99494.69;103533;1279;94405;-66
2022/04/24 06:11:13;;;;;;;0.50;0.50;;;;;;;10.03;61.27;99492.68;103489;1279;95066;-66
2022/04/24 06:13:42;;;;;;;0.50;0.40;;;;;;;10.15;60.86;99488.33;103491;1279;137651;-66
2022/04/24 06:16:10;;;;;;;0.50;0.50;;;;;;;10.18;61.12;99488.91;103721;1280;99518;-66
2022/04/24 06:18:38;;;;;;;0.50;0.50;;;;;;;10.31;60.83;99489.61;103260;1279;139181;-66
2022/04/24 06:21:07;;;;;;;0.50;0.50;;;;;;;10.37;60.62;99491.39;103302;1279;94658;-67
2022/04/24 06:23:35;;;;;;;0.50;0.50;;;;;;;10.37;60.54;99492.97;103499;1279;94694;-66
2022/04/24 06:26:03;;;;;;;0.50;0.40;;;;;;;10.47;60.72;99493.66;103530;1279;137541;-69
2022/04/24 06:28:31;;;;;;;0.50;0.50;;;;;;;10.55;60.51;99489.60;103534;1279;99672;-68
2022/04/24 06:30:59;;;;;;;0.50;0.50;;;;;;;10.65;60.53;99493.27;103474;1279;137980;-66
2022/04/24 06:33:27;;;;;;;0.50;0.40;;;;;;;10.75;60.48;99490.02;103466;1279;94904;-67
2022/04/24 06:35:55;;;;;;;0.50;0.40;;;;;;;10.85;60.34;99488.18;103482;1279;137835;-66
2022/04/24 06:38:24;;;;;;;0.40;0.40;;;;;;;10.98;60.26;99492.80;103576;1279;108354;-66
2022/04/24 06:40:53;;;;;;;0.40;0.40;;;;;;;11.01;59.99;99494.44;103484;1279;99895;-67
2022/04/24 06:43:21;;;;;;;0.40;0.40;;;;;;;10.97;59.97;99500.10;103394;1279;137727;-66
2022/04/24 06:45:48;;;;;;;0.40;0.40;;;;;;;10.97;59.98;99499.41;103481;1279;94347;-67
2022/04/24 06:48:16;;;;;;;0.40;0.40;;;;;;;11.10;60.09;99494.42;103446;1279;138677;-65
2022/04/24 06:50:46;;;;;;;0.40;0.40;;;;;;;11.21;59.87;99498.21;103555;1279;108345;-66
2022/04/24 06:53:18;;;;;;;0.40;0.40;;;;;;;11.29;59.81;99498.19;103577;1279;99370;-66
2022/04/24 06:55:48;;;;;;;0.40;0.30;;;;;;;11.26;59.89;99503.52;103656;1279;138030;-67
2022/04/24 06:58:18;;;;;;;0.40;0.40;;;;;;;11.32;59.99;99508.91;103562;1279;95091;-67
2022/04/24 07:00:47;;;;;;;0.40;0.30;;;;;;;11.44;60.06;99512.13;103507;1279;138265;-66
2022/04/24 07:03:35;;;;;;;0.40;0.30;;;;;;;11.57;59.76;99515.45;103473;1280;108329;-68
2022/04/24 07:06:04;;;;;;;0.40;0.30;;;;;;;11.65;59.61;99514.20;103397;1279;138174;-66
2022/04/24 07:08:33;;;;;;;0.40;0.40;;;;;;;11.74;59.29;99518.62;103588;1279;107840;-66
2022/04/24 07:11:01;;;;;;;0.40;0.30;;;;;;;11.74;59.22;99509.40;103667;1279;94674;-65
2022/04/24 07:13:29;;;;;;;0.50;0.40;;;;;;;11.74;59.17;99504.75;103311;1279;140288;-66
2022/04/24 07:15:57;;;;;;;0.40;0.30;;;;;;;11.83;59.41;99503.09;103323;1279;107372;-67
2022/04/24 07:18:27;;;;;;;0.40;0.30;;;;;;;11.92;59.11;99502.52;103240;1278;137767;-67
2022/04/24 07:20:56;;;;;;;0.40;0.30;;;;;;;12.03;59.18;99506.86;103589;1281;107735;-67
2022/04/24 07:23:24;;;;;;;0.50;0.40;;;;;;;12.07;58.55;99507.34;103775;1281;94323;-67
2022/04/24 07:25:52;;;;;;;0.40;0.30;;;;;;;12.02;58.88;99510.25;103185;1280;138955;-67
2022/04/24 07:28:22;;;;;;;0.40;0.30;;;;;;;12.18;58.91;99509.17;103362;1280;108549;-68
2022/04/24 07:30:50;;;;;;;0.40;0.30;;;;;;;12.36;58.53;99508.85;103521;1279;138094;-68
2022/04/24 07:33:19;;;;;;;0.40;0.30;;;;;;;12.62;58.18;99506.33;103316;1279;108297;-67
2022/04/24 07:35:47;;;;;;;0.40;0.30;;;;;;;12.95;57.55;99501.70;103377;1279;138078;-67
2022/04/24 07:38:15;;;;;;;0.40;0.30;;;;;;;13.16;57.42;99501.84;103611;1279;94554;-62
2022/04/24 07:40:43;;;;;;;0.40;0.40;;;;;;;13.36;56.56;99496.58;103435;1279;108442;-67
2022/04/24 07:43:13;;;;;;;0.40;0.30;;;;;;;13.36;55.98;99501.56;103356;1279;138146;-67
2022/04/24 07:45:47;;;;;;;0.40;0.30;;;;;;;13.47;56.44;99499.40;103254;1279;108861;-66
2022/04/24 07:48:16;;;;;;;0.40;0.30;;;;;;;13.54;55.82;99502.58;103372;1279;138123;-67
2022/04/24 07:50:46;;;;;;;0.40;0.30;;;;;;;13.55;56.24;99503.59;103543;1281;95052;-65
2022/04/24 07:53:14;;;;;;;0.40;0.40;;;;;;;13.66;55.56;99501.45;103957;1279;108406;-65
2022/04/24 07:55:44;;;;;;;0.40;0.30;;;;;;;13.76;55.08;99507.32;103737;1279;138600;-65
2022/04/24 07:58:13;;;;;;;0.40;0.30;;;;;;;13.69;54.52;99506.62;103864;1279;108816;-65
2022/04/24 08:00:41;;;;;;;0.40;0.20;;;;;;;13.54;54.23;99507.42;103882;1279;138034;-65
2022/04/24 08:03:11;;;;;;;0.40;0.30;;;;;;;13.48;55.09;99505.38;104180;1279;94717;-65
2022/04/24 08:05:42;;;;;;;0.40;0.30;;;;;;;13.61;54.91;99503.10;103996;1279;137835;-65
2022/04/24 08:08:14;;;;;;;0.40;0.30;;;;;;;13.68;54.86;99501.13;104171;1279;99563;-65
2022/04/24 08:10:47;;;;;;;0.40;0.20;;;;;;;13.80;54.11;99499.09;104151;1279;108987;-66
2022/04/24 08:13:16;;;;;;;0.40;0.30;;;;;;;13.72;53.88;99495.23;104052;1279;137737;-66
2022/04/24 08:15:45;;;;;;;0.40;0.30;;;;;;;13.74;54.13;99495.29;104172;1279;94399;-66
2022/04/24 08:18:13;;;;;;;0.40;0.30;;;;;;;13.86;54.22;99496.05;103763;1280;137244;-65
2022/04/24 08:20:42;;;;;;;0.40;0.30;;;;;;;13.93;54.07;99495.38;103693;1279;98450;-68
2022/04/24 08:23:11;;;;;;;0.40;0.30;;;;;;;13.94;53.79;99492.42;103997;1279;108813;-67
2022/04/24 08:25:39;;;;;;;0.40;0.30;;;;;;;14.02;54.15;99493.27;103813;1279;138740;-68
2022/04/24 08:28:12;;;;;;;0.40;0.30;;;;;;;14.27;53.13;99489.92;103278;1279;94854;-68
2022/04/24 08:30:42;;;;;;;0.40;0.30;;;;;;;14.33;52.80;99490.80;103783;1279;137632;-67
2022/04/24 08:33:11;;;;;;;0.40;0.30;;;;;;;14.60;52.65;99487.30;103775;1280;99473;-70
2022/04/24 08:35:39;;;;;;;0.40;0.30;;;;;;;14.75;52.36;99485.97;104507;1278;108810;-68
2022/04/24 08:38:07;;;;;;;0.40;0.20;;;;;;;14.79;52.43;99490.33;103308;1279;137518;-69
2022/04/24 08:40:35;;;;;;;0.40;0.30;;;;;;;14.75;51.92;99493.08;103284;1279;94320;-67
2022/04/24 08:43:03;;;;;;;0.40;0.20;;;;;;;14.79;51.58;99490.73;102724;1279;137669;-68
2022/04/24 08:45:32;;;;;;;0.40;0.30;;;;;;;15.02;51.98;99483.67;102821;1279;99495;-67
2022/04/24 08:48:02;;;;;;;0.40;0.20;;;;;;;15.30;51.41;99479.44;103284;1279;138170;-67
2022/04/24 08:50:31;;;;;;;0.40;0.20;;;;;;;15.53;50.08;99476.98;102930;1279;94416;-68
2022/04/24 08:53:00;;;;;;;0.40;0.20;;;;;;;15.63;48.97;99474.45;103076;1279;95501;-68
2022/04/24 08:55:32;;;;;;;0.40;0.20;;;;;;;15.93;48.00;99477.06;102413;1279;137910;-69
2022/04/24 08:58:01;;;;;;;0.40;0.20;;;;;;;16.00;47.62;99480.36;106724;1278;98868;-69
2022/04/24 09:00:29;;;;;;;0.40;0.20;;;;;;;15.99;47.81;99477.38;102500;1279;140387;-68
2022/04/24 09:02:58;;;;;;;0.40;0.20;;;;;;;16.15;48.02;99471.91;103276;1281;94327;-68
2022/04/24 09:05:30;;;;;;;0.40;0.20;;;;;;;16.12;47.40;99468.32;104399;1282;94743;-69
2022/04/24 09:08:12;;;;;;;0.40;0.20;;;;;;;16.35;47.45;99463.98;102699;1281;137757;-69
2022/04/24 09:11:00;;;;;;;0.40;0.20;;;;;;;16.48;46.52;99471.02;103047;1281;98276;-68
2022/04/24 09:16:49;;;;;;;0.40;0.20;;;;;;;16.41;45.63;99481.33;104079;1280;94732;-71
2022/04/24 09:19:22;;;;;;;0.40;0.20;;;;;;;16.66;45.29;99479.36;104042;1279;137596;-70
2022/04/24 09:21:51;;;;;;;0.40;0.30;;;;;;;16.92;44.94;99478.16;104127;1279;107567;-72
2022/04/24 09:24:20;;;;;;;0.40;0.30;;;;;;;18.33;41.84;99473.30;103254;1279;138369;-71
2022/04/24 09:26:53;;;;;;;0.40;0.20;;;;;;;19.97;40.57;99469.86;105385;1279;107493;-70
2022/04/24 09:29:21;;;;;;;0.40;0.20;;;;;;;21.58;37.65;99468.38;104082;1279;94249;-70
2022/04/24 09:31:50;;;;;;;0.40;0.20;;;;;;;23.06;33.83;99466.74;104089;1279;137453;-70
2022/04/24 09:34:20;;;;;;;0.40;0.10;;;;;;;24.10;31.87;99454.10;104158;1279;108350;-71
2022/04/24 09:37:00;;;;;;;0.40;0.10;;;;;;;24.15;31.86;99454.95;103211;1279;137923;-71
2022/04/24 09:39:29;;;;;;;0.40;0.00;;;;;;;24.75;31.52;99453.91;104201;1279;107659;-71
2022/04/24 09:42:11;;;;;;;0.40;0.10;;;;;;;24.62;31.15;99459.05;104123;1279;137929;-71
2022/04/24 09:44:52;;;;;;;0.40;0.10;;;;;;;26.04;30.04;99465.55;104131;1279;94373;-71
2022/04/24 09:47:42;;;;;;;0.40;0.00;;;;;;;26.33;28.69;99469.95;104090;1279;108557;-71
2022/04/24 09:50:10;;;;;;;0.40;0.10;;;;;;;25.22;29.51;99469.30;104055;1279;137517;-71
2022/04/24 09:52:45;;;;;;;0.40;0.00;;;;;;;24.13;29.86;99476.20;104081;1280;108568;-70
2022/04/24 09:55:14;;;;;;;0.40;0.00;;;;;;;23.50;31.13;99476.94;103815;1280;137975;-70
2022/04/24 09:57:42;;;;;;;0.40;0.00;;;;;;;23.29;31.52;99480.57;104193;1279;94719;-71
2022/04/24 10:00:11;;;;;;;0.40;0.00;;;;;;;22.75;32.15;99487.14;104007;1279;137773;-70
2022/04/24 10:02:41;;;;;;;0.40;0.10;;;;;;;21.84;32.04;99482.61;104053;1280;99350;-70
2022/04/24 10:05:09;;;;;;;0.40;0.10;;;;;;;21.10;33.54;99488.21;104308;1279;108929;-70
2022/04/24 10:07:38;;;;;;;0.40;0.10;;;;;;;20.61;34.55;99490.48;104047;1279;138205;-70
2022/04/24 10:10:07;;;;;;;0.40;0.10;;;;;;;20.27;34.93;99487.09;104163;1279;95470;-69
2022/04/24 10:12:35;;;;;;;0.40;0.10;;;;;;;19.56;35.35;99486.23;104281;1279;138026;-70
2022/04/24 10:15:12;;;;;;;0.40;0.20;;;;;;;19.33;36.75;99487.48;104106;1279;99417;-70
2022/04/24 10:17:55;;;;;;;0.40;0.10;;;;;;;21.26;34.33;99478.91;104020;1281;110306;-71
2022/04/24 10:21:02;;;;;;;0.40;0.10;;;;;;;22.49;32.35;99484.64;103821;1282;137973;-71
2022/04/24 10:23:35;;;;;;;0.40;0.10;;;;;;;21.53;33.49;99481.84;103961;1280;94345;-70
2022/04/24 10:26:04;;;;;;;0.40;0.10;;;;;;;20.98;34.19;99479.66;104120;1279;137473;-70
2022/04/24 10:28:39;;;;;;;0.40;0.10;;;;;;;20.75;34.71;99480.69;104201;1279;99476;-70
2022/04/24 10:31:16;;;;;;;0.40;0.10;;;;;;;20.14;34.56;99482.61;104244;1279;138099;-71
2022/04/24 10:33:55;;;;;;;0.40;0.10;;;;;;;19.55;36.16;99474.40;104232;1279;94346;-71
2022/04/24 10:36:23;;;;;;;0.40;0.10;;;;;;;19.33;36.96;99475.61;103996;1279;137677;-70
2022/04/24 10:38:57;;;;;;;0.40;0.10;;;;;;;19.19;37.43;99477.57;104154;1281;108418;-70
2022/04/24 10:41:59;;;;;;;0.40;0.10;;;;;;;18.98;38.18;99483.83;104130;1280;99528;-70
2022/04/24 10:44:27;;;;;;;0.40;0.10;;;;;;;18.87;37.98;99481.25;104105;1279;137743;-72
2022/04/24 10:46:57;;;;;;;0.40;0.10;;;;;;;18.84;38.11;99481.27;104349;1279;94504;-71
2022/04/24 10:49:33;;;;;;;0.40;0.10;;;;;;;19.06;38.20;99479.66;104199;1279;137664;-69
2022/04/24 10:52:03;;;;;;;0.40;0.10;;;;;;;19.02;38.23;99474.20;104293;1279;108011;-70
2022/04/24 10:54:34;;;;;;;0.40;0.10;;;;;;;18.96;37.97;99473.58;104090;1280;138332;-70
2022/04/24 10:57:23;;;;;;;0.40;0.10;;;;;;;18.87;38.04;99473.85;104149;1279;108923;-70
2022/04/24 10:59:52;;;;;;;0.40;0.10;;;;;;;18.73;37.92;99469.50;104185;1279;94250;-70
2022/04/24 11:02:23;;;;;;;0.40;0.10;;;;;;;18.62;38.62;99466.05;104065;1279;137558;-70
2022/04/24 11:05:02;;;;;;;0.40;0.10;;;;;;;18.55;39.03;99464.16;104183;1280;108576;-70
2022/04/24 11:07:31;;;;;;;0.40;0.10;;;;;;;18.49;39.30;99467.16;104397;1279;140447;-71
2022/04/24 11:10:01;;;;;;;0.40;0.10;;;;;;;18.47;39.27;99469.14;104367;1279;108758;-70
2022/04/24 11:12:33;;;;;;;0.40;0.10;;;;;;;18.42;39.38;99465.48;104139;1279;137873;-70
2022/04/24 11:15:12;;;;;;;0.40;0.10;;;;;;;18.36;39.71;99467.38;104160;1279;94786;-70
2022/04/24 11:17:41;;;;;;;0.40;0.10;;;;;;;18.31;39.73;99468.31;104185;1280;108494;-70
2022/04/24 11:20:13;;;;;;;0.40;0.10;;;;;;;18.20;40.00;99468.17;104132;1279;138621;-70
2022/04/24 11:22:55;;;;;;;0.40;0.10;;;;;;;18.14;40.16;99462.87;104495;1279;109904;-74
2022/04/24 11:25:25;;;;;;;0.40;0.10;;;;;;;17.98;40.07;99466.39;104115;1279;137806;-69
2022/04/24 11:27:58;;;;;;;0.40;0.10;;;;;;;17.86;39.47;99468.30;104036;1279;94909;-70
2022/04/24 11:30:32;;;;;;;0.40;0.10;;;;;;;17.79;40.26;99466.83;104070;1279;138715;-70
2022/04/24 11:33:08;;;;;;;0.40;0.10;;;;;;;17.81;39.96;99461.79;104223;1279;99383;-69
2022/04/24 11:35:38;;;;;;;0.40;0.20;;;;;;;17.68;39.86;99458.77;103108;1279;108717;-69
2022/04/24 11:38:09;;;;;;;0.40;0.20;;;;;;;17.70;39.89;99459.16;103046;1279;137899;-69